sensor_id;sensor_type;location;lat;lon;timestamp;pressure;altitude;pressure_sealevel;temperature;humidity
41636;BME280;27623;51.966;4.602;2023-05-14T00:00:41;64874.88;;;16.17;82.65
41636;BME280;27623;51.966;4.602;2023-05-14T00:03:06;64892.25;;;16.24;82.40
41636;BME280;27623;51.966;4.602;2023-05-14T00:05:31;64901.13;;;16.18;82.43
41636;BME280;27623;51.966;4.602;2023-05-14T00:07:57;64888.03;;;16.22;82.50
41636;BME280;27623;51.966;4.602;2023-05-14T00:10:22;64878.91;;;16.16;83.40
41636;BME280;27623;51.966;4.602;2023-05-14T00:12:50;64902.13;;;16.02;83.80
41636;BME280;27623;51.966;4.602;2023-05-14T00:15:18;64846.13;;;16.02;83.73
41636;BME280;27623;51.966;4.602;2023-05-14T00:17:43;64859.09;;;16.12;83.49
41636;BME280;27623;51.966;4.602;2023-05-14T00:20:09;64865.44;;;15.99;83.81
41636;BME280;27623;51.966;4.602;2023-05-14T00:22:38;64882.47;;;16.07;83.42
41636;BME280;27623;51.966;4.602;2023-05-14T00:25:04;64853.53;;;15.97;82.91
41636;BME280;27623;51.966;4.602;2023-05-14T00:27:30;64838.97;;;16.03;83.49
41636;BME280;27623;51.966;4.602;2023-05-14T00:29:56;64854.66;;;15.91;83.76
41636;BME280;27623;51.966;4.602;2023-05-14T00:32:22;64853.94;;;15.88;84.06
41636;BME280;27623;51.966;4.602;2023-05-14T00:34:47;64800.19;;;15.84;83.93
41636;BME280;27623;51.966;4.602;2023-05-14T00:37:13;64850.88;;;15.80;84.08
41636;BME280;27623;51.966;4.602;2023-05-14T00:39:38;64845.88;;;15.90;83.38
41636;BME280;27623;51.966;4.602;2023-05-14T00:42:04;64803.75;;;15.75;84.07
41636;BME280;27623;51.966;4.602;2023-05-14T00:44:29;64838.44;;;15.78;84.18
41636;BME280;27623;51.966;4.602;2023-05-14T00:46:57;64815.50;;;15.74;84.09
41636;BME280;27623;51.966;4.602;2023-05-14T00:49:24;64834.81;;;15.70;84.21
41636;BME280;27623;51.966;4.602;2023-05-14T00:51:52;64854.06;;;15.74;83.97
41636;BME280;27623;51.966;4.602;2023-05-14T00:54:18;64789.94;;;15.53;85.11
41636;BME280;27623;51.966;4.602;2023-05-14T00:56:47;64821.34;;;15.46;85.69
41636;BME280;27623;51.966;4.602;2023-05-14T00:59:12;64847.84;;;15.66;84.78
41636;BME280;27623;51.966;4.602;2023-05-14T01:01:38;64807.88;;;15.60;85.37
41636;BME280;27623;51.966;4.602;2023-05-14T01:04:06;64830.53;;;15.45;85.85
41636;BME280;27623;51.966;4.602;2023-05-14T01:12:02;64822.97;;;15.55;85.53
41636;BME280;27623;51.966;4.602;2023-05-14T01:14:54;64793.25;;;15.56;85.03
41636;BME280;27623;51.966;4.602;2023-05-14T01:17:23;64771.25;;;15.50;85.70
41636;BME280;27623;51.966;4.602;2023-05-14T01:19:50;64810.19;;;15.40;85.95
41636;BME280;27623;51.966;4.602;2023-05-14T01:22:16;64775.78;;;15.32;86.41
41636;BME280;27623;51.966;4.602;2023-05-14T01:24:41;64784.38;;;15.38;86.05
41636;BME280;27623;51.966;4.602;2023-05-14T01:27:14;64769.22;;;15.26;86.40
41636;BME280;27623;51.966;4.602;2023-05-14T01:29:44;64808.00;;;15.38;86.20
41636;BME280;27623;51.966;4.602;2023-05-14T01:32:14;64776.75;;;15.24;86.57
41636;BME280;27623;51.966;4.602;2023-05-14T01:34:40;64769.72;;;15.34;85.67
41636;BME280;27623;51.966;4.602;2023-05-14T01:37:08;64761.19;;;15.21;86.14
41636;BME280;27623;51.966;4.602;2023-05-14T01:39:38;64783.53;;;15.25;86.57
41636;BME280;27623;51.966;4.602;2023-05-14T01:42:07;64791.97;;;15.21;86.29
41636;BME280;27623;51.966;4.602;2023-05-14T01:44:33;64773.63;;;15.23;86.36
41636;BME280;27623;51.966;4.602;2023-05-14T01:46:59;64790.13;;;15.24;86.42
41636;BME280;27623;51.966;4.602;2023-05-14T01:49:24;64758.28;;;15.16;86.12
41636;BME280;27623;51.966;4.602;2023-05-14T01:51:49;64791.88;;;15.11;86.89
41636;BME280;27623;51.966;4.602;2023-05-14T01:54:17;64787.94;;;15.22;86.28
41636;BME280;27623;51.966;4.602;2023-05-14T01:56:43;64769.25;;;15.19;86.18
41636;BME280;27623;51.966;4.602;2023-05-14T01:59:08;64773.72;;;15.09;86.69
41636;BME280;27623;51.966;4.602;2023-05-14T02:01:33;64731.78;;;15.03;86.13
41636;BME280;27623;51.966;4.602;2023-05-14T02:03:58;64741.22;;;14.91;87.73
41636;BME280;27623;51.966;4.602;2023-05-14T02:06:25;64711.56;;;14.85;87.50
41636;BME280;27623;51.966;4.602;2023-05-14T02:08:50;64763.31;;;14.99;86.85
41636;BME280;27623;51.966;4.602;2023-05-14T02:11:16;64737.19;;;14.92;87.15
41636;BME280;27623;51.966;4.602;2023-05-14T02:13:41;64745.44;;;14.92;87.52
41636;BME280;27623;51.966;4.602;2023-05-14T02:16:09;64746.09;;;15.02;86.87
41636;BME280;27623;51.966;4.602;2023-05-14T02:18:34;64732.03;;;14.92;87.24
41636;BME280;27623;51.966;4.602;2023-05-14T02:21:00;64739.56;;;14.89;87.82
41636;BME280;27623;51.966;4.602;2023-05-14T02:23:25;64722.72;;;14.90;86.87
41636;BME280;27623;51.966;4.602;2023-05-14T02:25:50;64770.84;;;14.97;86.61
41636;BME280;27623;51.966;4.602;2023-05-14T02:28:16;64731.19;;;14.79;88.28
41636;BME280;27623;51.966;4.602;2023-05-14T02:30:41;64697.56;;;14.67;88.99
41636;BME280;27623;51.966;4.602;2023-05-14T02:33:09;64715.25;;;14.78;88.41
41636;BME280;27623;51.966;4.602;2023-05-14T02:35:34;64721.47;;;14.79;88.38
41636;BME280;27623;51.966;4.602;2023-05-14T02:38:00;64720.44;;;14.71;88.78
41636;BME280;27623;51.966;4.602;2023-05-14T02:40:25;64702.69;;;14.67;89.53
41636;BME280;27623;51.966;4.602;2023-05-14T02:42:51;64677.75;;;14.70;89.30
41636;BME280;27623;51.966;4.602;2023-05-14T02:45:16;64735.03;;;14.83;88.63
41636;BME280;27623;51.966;4.602;2023-05-14T02:47:41;64708.00;;;14.69;88.47
41636;BME280;27623;51.966;4.602;2023-05-14T02:50:09;64762.22;;;14.74;88.63
41636;BME280;27623;51.966;4.602;2023-05-14T02:52:35;64714.56;;;14.75;88.31
41636;BME280;27623;51.966;4.602;2023-05-14T02:55:03;64695.94;;;14.65;89.43
41636;BME280;27623;51.966;4.602;2023-05-14T02:57:28;64721.91;;;14.70;88.65
41636;BME280;27623;51.966;4.602;2023-05-14T02:59:54;64712.81;;;14.57;89.00
41636;BME280;27623;51.966;4.602;2023-05-14T03:02:19;64695.38;;;14.65;88.86
41636;BME280;27623;51.966;4.602;2023-05-14T03:04:47;64700.78;;;14.53;89.51
41636;BME280;27623;51.966;4.602;2023-05-14T03:07:12;64677.69;;;14.53;89.51
41636;BME280;27623;51.966;4.602;2023-05-14T03:09:38;64668.94;;;14.45;89.52
41636;BME280;27623;51.966;4.602;2023-05-14T03:12:03;64666.22;;;14.42;90.03
41636;BME280;27623;51.966;4.602;2023-05-14T03:14:29;64678.47;;;14.42;89.93
41636;BME280;27623;51.966;4.602;2023-05-14T03:16:54;64681.00;;;14.49;88.94
41636;BME280;27623;51.966;4.602;2023-05-14T03:19:19;64684.13;;;14.50;89.78
41636;BME280;27623;51.966;4.602;2023-05-14T03:21:45;64661.63;;;14.43;90.02
41636;BME280;27623;51.966;4.602;2023-05-14T03:24:11;64655.19;;;14.47;90.30
41636;BME280;27623;51.966;4.602;2023-05-14T03:26:36;64651.78;;;14.34;90.77
41636;BME280;27623;51.966;4.602;2023-05-14T03:29:02;64695.91;;;14.34;91.55
41636;BME280;27623;51.966;4.602;2023-05-14T03:31:28;64674.72;;;14.24;91.82
41636;BME280;27623;51.966;4.602;2023-05-14T03:33:53;64680.50;;;14.34;91.98
41636;BME280;27623;51.966;4.602;2023-05-14T03:36:19;64675.38;;;14.34;91.53
41636;BME280;27623;51.966;4.602;2023-05-14T03:38:44;64662.34;;;14.39;91.45
41636;BME280;27623;51.966;4.602;2023-05-14T03:41:09;64659.34;;;14.24;92.13
41636;BME280;27623;51.966;4.602;2023-05-14T03:43:35;64640.28;;;14.30;91.88
41636;BME280;27623;51.966;4.602;2023-05-14T03:46:00;64629.91;;;14.14;93.21
41636;BME280;27623;51.966;4.602;2023-05-14T03:48:26;64636.84;;;14.18;92.81
41636;BME280;27623;51.966;4.602;2023-05-14T03:50:51;64628.06;;;14.17;93.21
41636;BME280;27623;51.966;4.602;2023-05-14T03:53:19;64667.31;;;14.36;91.84
41636;BME280;27623;51.966;4.602;2023-05-14T03:55:44;64640.75;;;14.38;91.40
41636;BME280;27623;51.966;4.602;2023-05-14T03:58:09;64684.41;;;14.31;91.43
41636;BME280;27623;51.966;4.602;2023-05-14T04:00:39;64675.97;;;14.28;91.41
41636;BME280;27623;51.966;4.602;2023-05-14T04:03:05;64652.28;;;14.10;92.94
41636;BME280;27623;51.966;4.602;2023-05-14T04:05:31;64627.53;;;14.16;92.66
41636;BME280;27623;51.966;4.602;2023-05-14T04:07:56;64593.81;;;13.94;93.64
41636;BME280;27623;51.966;4.602;2023-05-14T04:10:22;64642.41;;;14.08;93.97
41636;BME280;27623;51.966;4.602;2023-05-14T04:12:47;64644.91;;;14.16;93.10
41636;BME280;27623;51.966;4.602;2023-05-14T04:15:13;64683.88;;;14.23;93.01
41636;BME280;27623;51.966;4.602;2023-05-14T04:17:38;64656.50;;;14.12;93.02
41636;BME280;27623;51.966;4.602;2023-05-14T04:20:04;64611.69;;;14.01;94.09
41636;BME280;27623;51.966;4.602;2023-05-14T04:22:32;64634.25;;;13.94;94.93
41636;BME280;27623;51.966;4.602;2023-05-14T04:24:59;64614.47;;;13.97;95.20
41636;BME280;27623;51.966;4.602;2023-05-14T04:27:25;64617.19;;;13.99;95.34
41636;BME280;27623;51.966;4.602;2023-05-14T04:29:51;64590.66;;;14.01;95.29
41636;BME280;27623;51.966;4.602;2023-05-14T04:32:16;64598.72;;;13.99;95.68
41636;BME280;27623;51.966;4.602;2023-05-14T04:34:42;64662.75;;;14.06;95.06
41636;BME280;27623;51.966;4.602;2023-05-14T04:37:07;64627.53;;;14.16;95.18
41636;BME280;27623;51.966;4.602;2023-05-14T04:39:33;64661.22;;;14.14;95.18
41636;BME280;27623;51.966;4.602;2023-05-14T04:41:58;64639.72;;;13.99;95.89
41636;BME280;27623;51.966;4.602;2023-05-14T04:44:27;64618.50;;;13.96;96.48
41636;BME280;27623;51.966;4.602;2023-05-14T04:46:52;64589.19;;;14.02;96.27
41636;BME280;27623;51.966;4.602;2023-05-14T04:49:17;64647.00;;;14.08;96.41
41636;BME280;27623;51.966;4.602;2023-05-14T04:51:43;64660.19;;;14.06;96.33
41636;BME280;27623;51.966;4.602;2023-05-14T04:54:08;64631.09;;;14.00;97.51
41636;BME280;27623;51.966;4.602;2023-05-14T04:56:34;64621.16;;;14.13;96.86
41636;BME280;27623;51.966;4.602;2023-05-14T04:58:59;64655.22;;;14.08;97.06
41636;BME280;27623;51.966;4.602;2023-05-14T05:01:24;64653.59;;;14.07;98.27
41636;BME280;27623;51.966;4.602;2023-05-14T05:03:50;64639.66;;;14.13;97.56
41636;BME280;27623;51.966;4.602;2023-05-14T05:06:15;64629.91;;;14.14;98.41
41636;BME280;27623;51.966;4.602;2023-05-14T05:08:40;64628.06;;;14.17;98.33
41636;BME280;27623;51.966;4.602;2023-05-14T05:11:06;64643.25;;;14.21;98.80
41636;BME280;27623;51.966;4.602;2023-05-14T05:13:31;64649.34;;;14.13;99.22
41636;BME280;27623;51.966;4.602;2023-05-14T05:16:00;64643.69;;;14.36;97.27
41636;BME280;27623;51.966;4.602;2023-05-14T05:18:25;64660.94;;;14.33;98.67
41636;BME280;27623;51.966;4.602;2023-05-14T05:20:53;64671.19;;;14.33;99.29
41636;BME280;27623;51.966;4.602;2023-05-14T05:23:18;64688.63;;;14.25;99.73
41636;BME280;27623;51.966;4.602;2023-05-14T05:25:44;64673.16;;;14.39;99.31
41636;BME280;27623;51.966;4.602;2023-05-14T05:28:11;64684.53;;;14.40;99.50
41636;BME280;27623;51.966;4.602;2023-05-14T05:30:40;64672.13;;;14.31;99.80
41636;BME280;27623;51.966;4.602;2023-05-14T05:33:05;64671.16;;;14.40;99.46
41636;BME280;27623;51.966;4.602;2023-05-14T05:35:31;64682.31;;;14.38;99.61
41636;BME280;27623;51.966;4.602;2023-05-14T05:37:56;64647.91;;;14.37;100.00
41636;BME280;27623;51.966;4.602;2023-05-14T05:40:22;64692.78;;;14.41;99.88
41636;BME280;27623;51.966;4.602;2023-05-14T05:42:47;64707.22;;;14.42;99.87
41636;BME280;27623;51.966;4.602;2023-05-14T05:45:12;64668.41;;;14.37;100.00
41636;BME280;27623;51.966;4.602;2023-05-14T05:47:38;64660.72;;;14.37;100.00
41636;BME280;27623;51.966;4.602;2023-05-14T05:50:04;64663.13;;;14.35;100.00
41636;BME280;27623;51.966;4.602;2023-05-14T05:52:29;64682.69;;;14.36;100.00
41636;BME280;27623;51.966;4.602;2023-05-14T05:54:57;64687.44;;;14.38;100.00
41636;BME280;27623;51.966;4.602;2023-05-14T05:57:25;64670.59;;;14.47;100.00
41636;BME280;27623;51.966;4.602;2023-05-14T05:59:51;64701.69;;;14.52;100.00
41636;BME280;27623;51.966;4.602;2023-05-14T06:02:17;64668.03;;;14.47;100.00
41636;BME280;27623;51.966;4.602;2023-05-14T06:04:43;64667.31;;;14.36;100.00
41636;BME280;27623;51.966;4.602;2023-05-14T06:07:08;64687.44;;;14.46;100.00
41636;BME280;27623;51.966;4.602;2023-05-14T06:09:33;64673.31;;;14.49;100.00
41636;BME280;27623;51.966;4.602;2023-05-14T06:11:58;64711.91;;;14.59;100.00
41636;BME280;27623;51.966;4.602;2023-05-14T06:14:24;64710.31;;;14.50;100.00
41636;BME280;27623;51.966;4.602;2023-05-14T06:16:52;64707.75;;;14.50;100.00
41636;BME280;27623;51.966;4.602;2023-05-14T06:19:17;64684.66;;;14.50;100.00
41636;BME280;27623;51.966;4.602;2023-05-14T06:21:44;64754.06;;;14.53;100.00
41636;BME280;27623;51.966;4.602;2023-05-14T06:24:10;64701.72;;;14.44;100.00
41636;BME280;27623;51.966;4.602;2023-05-14T06:26:35;64707.19;;;14.50;100.00
41636;BME280;27623;51.966;4.602;2023-05-14T06:29:01;64723.22;;;14.67;100.00
41636;BME280;27623;51.966;4.602;2023-05-14T06:31:26;64692.81;;;14.65;100.00
41636;BME280;27623;51.966;4.602;2023-05-14T06:33:51;64749.41;;;14.67;100.00
41636;BME280;27623;51.966;4.602;2023-05-14T06:36:17;64705.44;;;14.69;100.00
41636;BME280;27623;51.966;4.602;2023-05-14T06:38:42;64716.34;;;14.79;100.00
41636;BME280;27623;51.966;4.602;2023-05-14T06:41:10;64728.25;;;14.81;100.00
41636;BME280;27623;51.966;4.602;2023-05-14T06:43:35;64748.22;;;14.81;100.00
41636;BME280;27623;51.966;4.602;2023-05-14T06:46:00;64724.94;;;14.85;100.00
41636;BME280;27623;51.966;4.602;2023-05-14T06:48:26;64717.41;;;14.88;100.00
41636;BME280;27623;51.966;4.602;2023-05-14T06:50:53;64771.25;;;14.95;100.00
41636;BME280;27623;51.966;4.602;2023-05-14T06:53:18;64722.72;;;14.90;100.00
41636;BME280;27623;51.966;4.602;2023-05-14T06:55:46;64734.84;;;14.80;100.00
41636;BME280;27623;51.966;4.602;2023-05-14T06:58:13;64737.97;;;14.81;100.00
41636;BME280;27623;51.966;4.602;2023-05-14T07:00:39;64772.22;;;14.86;100.00
41636;BME280;27623;51.966;4.602;2023-05-14T07:03:07;64751.13;;;14.86;100.00
41636;BME280;27623;51.966;4.602;2023-05-14T07:05:32;64724.00;;;14.87;100.00
41636;BME280;27623;51.966;4.602;2023-05-14T07:07:58;64738.47;;;14.88;100.00
41636;BME280;27623;51.966;4.602;2023-05-14T07:10:23;64743.19;;;14.97;100.00
41636;BME280;27623;51.966;4.602;2023-05-14T07:12:49;64763.50;;;15.02;100.00
41636;BME280;27623;51.966;4.602;2023-05-14T07:15:14;64760.19;;;15.06;100.00
41636;BME280;27623;51.966;4.602;2023-05-14T07:17:40;64788.16;;;15.18;100.00
41636;BME280;27623;51.966;4.602;2023-05-14T07:20:05;64781.88;;;15.24;100.00
41636;BME280;27623;51.966;4.602;2023-05-14T07:22:33;64780.44;;;15.18;100.00
41636;BME280;27623;51.966;4.602;2023-05-14T07:24:59;64769.97;;;15.22;100.00
41636;BME280;27623;51.966;4.602;2023-05-14T07:27:24;64792.31;;;15.26;100.00
41636;BME280;27623;51.966;4.602;2023-05-14T07:29:52;64769.72;;;15.34;100.00
41636;BME280;27623;51.966;4.602;2023-05-14T07:32:17;64800.84;;;15.39;100.00
41636;BME280;27623;51.966;4.602;2023-05-14T07:34:43;64806.50;;;15.46;99.77
41636;BME280;27623;51.966;4.602;2023-05-14T07:37:08;64796.78;;;15.47;99.64
41636;BME280;27623;51.966;4.602;2023-05-14T07:39:33;64837.13;;;15.51;99.48
41636;BME280;27623;51.966;4.602;2023-05-14T07:41:59;64790.69;;;15.56;99.18
41636;BME280;27623;51.966;4.602;2023-05-14T07:44:25;64798.16;;;15.60;98.82
41636;BME280;27623;51.966;4.602;2023-05-14T07:46:50;64852.25;;;15.70;98.39
41636;BME280;27623;51.966;4.602;2023-05-14T07:49:16;64862.47;;;15.77;97.86
41636;BME280;27623;51.966;4.602;2023-05-14T07:51:41;64855.09;;;15.82;97.22
41636;BME280;27623;51.966;4.602;2023-05-14T07:54:07;64832.41;;;15.97;96.71
41636;BME280;27623;51.966;4.602;2023-05-14T07:56:32;64880.16;;;15.96;96.55
41636;BME280;27623;51.966;4.602;2023-05-14T07:58:57;64911.50;;;16.03;96.38
41636;BME280;27623;51.966;4.602;2023-05-14T08:01:23;64921.22;;;16.03;96.91
41636;BME280;27623;51.966;4.602;2023-05-14T08:03:48;64889.19;;;16.16;95.80
41636;BME280;27623;51.966;4.602;2023-05-14T08:06:13;64939.53;;;16.15;95.32
41636;BME280;27623;51.966;4.602;2023-05-14T08:08:39;64911.78;;;16.15;95.58
41636;BME280;27623;51.966;4.602;2023-05-14T08:11:05;64908.28;;;16.17;95.63
41636;BME280;27623;51.966;4.602;2023-05-14T08:13:30;64950.66;;;16.28;95.73
41636;BME280;27623;51.966;4.602;2023-05-14T08:15:56;64945.25;;;16.39;94.72
41636;BME280;27623;51.966;4.602;2023-05-14T08:18:21;64933.31;;;16.38;95.73
41636;BME280;27623;51.966;4.602;2023-05-14T08:20:46;64971.09;;;16.49;95.11
41636;BME280;27623;51.966;4.602;2023-05-14T08:23:12;64956.75;;;16.50;95.41
41636;BME280;27623;51.966;4.602;2023-05-14T08:25:37;64959.97;;;16.67;95.03
41636;BME280;27623;51.966;4.602;2023-05-14T08:28:06;65007.13;;;16.80;95.15
41636;BME280;27623;51.966;4.602;2023-05-14T08:30:34;64972.50;;;16.86;94.47
41636;BME280;27623;51.966;4.602;2023-05-14T08:32:59;64993.66;;;16.87;93.27
41636;BME280;27623;51.966;4.602;2023-05-14T08:35:24;64979.91;;;16.81;91.80
41636;BME280;27623;51.966;4.602;2023-05-14T08:37:50;64990.53;;;16.86;92.17
41636;BME280;27623;51.966;4.602;2023-05-14T08:40:16;64999.50;;;16.90;91.27
41636;BME280;27623;51.966;4.602;2023-05-14T08:42:45;64967.81;;;16.77;91.96
41636;BME280;27623;51.966;4.602;2023-05-14T08:45:19;64972.56;;;16.79;92.23
41636;BME280;27623;51.966;4.602;2023-05-14T08:47:49;65003.84;;;17.01;92.32
41636;BME280;27623;51.966;4.602;2023-05-14T08:50:16;65053.22;;;17.15;92.76
41636;BME280;27623;51.966;4.602;2023-05-14T08:52:41;65053.50;;;17.28;92.56
41636;BME280;27623;51.966;4.602;2023-05-14T08:55:08;65065.13;;;17.24;91.09
41636;BME280;27623;51.966;4.602;2023-05-14T08:57:38;65033.88;;;17.19;90.72
41636;BME280;27623;51.966;4.602;2023-05-14T09:00:06;65057.72;;;17.29;91.64
41636;BME280;27623;51.966;4.602;2023-05-14T09:02:33;65003.22;;;17.31;92.50
41636;BME280;27623;51.966;4.602;2023-05-14T09:05:01;65055.69;;;17.30;92.07
41636;BME280;27623;51.966;4.602;2023-05-14T09:07:29;65046.25;;;17.35;92.79
41636;BME280;27623;51.966;4.602;2023-05-14T09:09:54;65047.38;;;17.36;90.46
41636;BME280;27623;51.966;4.602;2023-05-14T09:12:20;65063.44;;;17.53;90.17
41636;BME280;27623;51.966;4.602;2023-05-14T09:14:47;65115.28;;;17.66;89.94
41636;BME280;27623;51.966;4.602;2023-05-14T09:17:14;65100.03;;;17.85;89.93
41636;BME280;27623;51.966;4.602;2023-05-14T09:19:41;65175.25;;;18.00;90.85
41636;BME280;27623;51.966;4.602;2023-05-14T09:22:09;65150.22;;;18.19;90.52
41636;BME280;27623;51.966;4.602;2023-05-14T09:24:35;65173.88;;;18.34;90.32
41636;BME280;27623;51.966;4.602;2023-05-14T09:27:03;65216.16;;;18.49;88.50
41636;BME280;27623;51.966;4.602;2023-05-14T09:29:31;65232.50;;;18.62;87.39
41636;BME280;27623;51.966;4.602;2023-05-14T09:31:58;65239.63;;;18.69;86.28
41636;BME280;27623;51.966;4.602;2023-05-14T09:34:26;65264.25;;;18.82;85.58
41636;BME280;27623;51.966;4.602;2023-05-14T09:36:59;65319.09;;;18.99;85.64
41636;BME280;27623;51.966;4.602;2023-05-14T09:39:25;65339.22;;;19.22;85.65
41636;BME280;27623;51.966;4.602;2023-05-14T09:41:55;65287.69;;;19.25;83.29
41636;BME280;27623;51.966;4.602;2023-05-14T09:44:24;65305.03;;;19.29;81.51
41636;BME280;27623;51.966;4.602;2023-05-14T09:46:50;65304.19;;;19.40;80.97
41636;BME280;27623;51.966;4.602;2023-05-14T09:49:16;65347.19;;;19.42;80.17
41636;BME280;27623;51.966;4.602;2023-05-14T09:51:41;65310.75;;;19.53;79.90
41636;BME280;27623;51.966;4.602;2023-05-14T09:54:07;65347.75;;;19.66;80.11
41636;BME280;27623;51.966;4.602;2023-05-14T09:56:34;65379.97;;;19.77;79.87
41636;BME280;27623;51.966;4.602;2023-05-14T09:58:59;65381.97;;;19.83;77.40
41636;BME280;27623;51.966;4.602;2023-05-14T10:01:27;65362.19;;;19.82;76.38
41636;BME280;27623;51.966;4.602;2023-05-14T10:03:53;65438.66;;;19.88;74.50
41636;BME280;27623;51.966;4.602;2023-05-14T10:06:24;65416.56;;;19.99;76.06
41636;BME280;27623;51.966;4.602;2023-05-14T10:08:54;65432.19;;;20.08;75.25
41636;BME280;27623;51.966;4.602;2023-05-14T10:11:24;65427.06;;;20.25;75.43
41636;BME280;27623;51.966;4.602;2023-05-14T10:14:19;65466.34;;;20.40;74.55
41636;BME280;27623;51.966;4.602;2023-05-14T10:16:49;65442.25;;;20.44;73.93
41636;BME280;27623;51.966;4.602;2023-05-14T10:19:17;65494.63;;;20.61;73.42
41636;BME280;27623;51.966;4.602;2023-05-14T10:21:47;65490.88;;;20.67;70.80
41636;BME280;27623;51.966;4.602;2023-05-14T10:24:18;65513.59;;;20.74;72.16
41636;BME280;27623;51.966;4.602;2023-05-14T10:26:44;65521.78;;;20.88;70.41
41636;BME280;27623;51.966;4.602;2023-05-14T10:29:10;65531.63;;;21.05;71.36
41636;BME280;27623;51.966;4.602;2023-05-14T10:31:51;65527.88;;;21.11;70.92
41636;BME280;27623;51.966;4.602;2023-05-14T10:42:07;65627.47;;;21.59;66.02
41636;BME280;27623;51.966;4.602;2023-05-14T10:44:34;65624.34;;;21.76;66.01
41636;BME280;27623;51.966;4.602;2023-05-14T10:47:00;65672.19;;;21.93;65.53
41636;BME280;27623;51.966;4.602;2023-05-14T10:49:28;65690.63;;;22.06;65.50
41636;BME280;27623;51.966;4.602;2023-05-14T10:51:54;65734.94;;;22.25;65.23
41636;BME280;27623;51.966;4.602;2023-05-14T10:54:22;65753.72;;;22.42;63.82
41636;BME280;27623;51.966;4.602;2023-05-14T10:56:48;65747.84;;;22.56;64.83
41636;BME280;27623;51.966;4.602;2023-05-14T10:59:15;65774.63;;;22.69;63.96
41636;BME280;27623;51.966;4.602;2023-05-14T11:01:41;65772.31;;;22.81;64.48
41636;BME280;27623;51.966;4.602;2023-05-14T11:04:07;65797.91;;;22.83;61.67
41636;BME280;27623;51.966;4.602;2023-05-14T11:06:36;65784.59;;;22.94;62.86
41636;BME280;27623;51.966;4.602;2023-05-14T11:09:05;65826.94;;;23.14;62.60
41636;BME280;27623;51.966;4.602;2023-05-14T11:11:34;65789.81;;;23.11;59.79
41636;BME280;27623;51.966;4.602;2023-05-14T11:13:59;65844.75;;;23.16;60.44
41636;BME280;27623;51.966;4.602;2023-05-14T11:16:27;65850.50;;;23.17;60.03
41636;BME280;27623;51.966;4.602;2023-05-14T11:19:02;65883.06;;;23.30;61.76
41636;BME280;27623;51.966;4.602;2023-05-14T11:21:28;65826.38;;;23.14;60.81
41636;BME280;27623;51.966;4.602;2023-05-14T11:23:55;65866.34;;;23.29;62.21
41636;BME280;27623;51.966;4.602;2023-05-14T11:26:20;65851.22;;;23.37;62.04
41636;BME280;27623;51.966;4.602;2023-05-14T11:28:46;65876.25;;;23.45;60.51
41636;BME280;27623;51.966;4.602;2023-05-14T11:31:12;65863.25;;;23.62;59.41
41636;BME280;27623;51.966;4.602;2023-05-14T11:33:38;65884.91;;;23.51;59.54
41636;BME280;27623;51.966;4.602;2023-05-14T11:36:08;65871.66;;;23.39;58.68
41636;BME280;27623;51.966;4.602;2023-05-14T11:38:45;65887.63;;;23.60;57.85
41636;BME280;27623;51.966;4.602;2023-05-14T11:41:13;65870.91;;;23.59;58.10
41636;BME280;27623;51.966;4.602;2023-05-14T11:43:38;65891.19;;;23.76;58.51
41636;BME280;27623;51.966;4.602;2023-05-14T11:46:03;65945.31;;;23.92;57.87
41636;BME280;27623;51.966;4.602;2023-05-14T11:48:30;65948.09;;;24.11;57.84
41636;BME280;27623;51.966;4.602;2023-05-14T11:50:56;65993.22;;;24.24;56.13
41636;BME280;27623;51.966;4.602;2023-05-14T11:53:28;66019.44;;;24.43;55.81
41636;BME280;27623;51.966;4.602;2023-05-14T11:55:56;66015.81;;;24.52;57.27
41636;BME280;27623;51.966;4.602;2023-05-14T11:58:23;66095.63;;;24.77;55.72
41636;BME280;27623;51.966;4.602;2023-05-14T12:00:52;66071.53;;;24.84;55.27
41636;BME280;27623;51.966;4.602;2023-05-14T12:03:19;66105.63;;;25.03;54.01
41636;BME280;27623;51.966;4.602;2023-05-14T12:06:00;66126.03;;;25.29;53.74
41636;BME280;27623;51.966;4.602;2023-05-14T12:08:27;66119.78;;;25.21;52.16
41636;BME280;27623;51.966;4.602;2023-05-14T12:10:53;66146.09;;;25.16;51.66
41636;BME280;27623;51.966;4.602;2023-05-14T12:13:19;66107.22;;;25.12;52.81
41636;BME280;27623;51.966;4.602;2023-05-14T12:15:54;66144.31;;;25.29;53.41
41636;BME280;27623;51.966;4.602;2023-05-14T12:18:33;66135.38;;;25.28;52.21
41636;BME280;27623;51.966;4.602;2023-05-14T12:21:03;66115.19;;;25.14;52.43
41636;BME280;27623;51.966;4.602;2023-05-14T12:23:31;66114.00;;;25.20;52.52
41636;BME280;27623;51.966;4.602;2023-05-14T12:26:02;66084.88;;;24.89;53.74
41636;BME280;27623;51.966;4.602;2023-05-14T12:28:30;66097.44;;;24.81;54.89
41636;BME280;27623;51.966;4.602;2023-05-14T12:30:57;66038.09;;;24.75;54.03
41636;BME280;27623;51.966;4.602;2023-05-14T12:33:22;66060.53;;;24.83;51.86
41636;BME280;27623;51.966;4.602;2023-05-14T12:35:48;66080.78;;;24.90;54.19
41636;BME280;27623;51.966;4.602;2023-05-14T12:38:14;66090.59;;;24.96;53.51
41636;BME280;27623;51.966;4.602;2023-05-14T12:40:40;66109.16;;;25.02;53.68
41636;BME280;27623;51.966;4.602;2023-05-14T12:43:05;66081.63;;;24.79;52.49
41636;BME280;27623;51.966;4.602;2023-05-14T12:45:30;66014.47;;;24.55;52.27
41636;BME280;27623;51.966;4.602;2023-05-14T12:47:56;66056.09;;;24.62;53.17
41636;BME280;27623;51.966;4.602;2023-05-14T12:50:21;66021.81;;;24.64;52.91
41636;BME280;27623;51.966;4.602;2023-05-14T12:52:47;66039.13;;;24.66;53.70
41636;BME280;27623;51.966;4.602;2023-05-14T12:55:12;66048.22;;;24.70;54.20
41636;BME280;27623;51.966;4.602;2023-05-14T12:57:38;66075.34;;;24.94;52.74
41636;BME280;27623;51.966;4.602;2023-05-14T13:00:03;66101.66;;;25.07;51.47
41636;BME280;27623;51.966;4.602;2023-05-14T13:02:33;66084.91;;;25.06;51.57
41636;BME280;27623;51.966;4.602;2023-05-14T13:04:58;66144.03;;;25.17;51.79
41636;BME280;27623;51.966;4.602;2023-05-14T13:07:27;66128.81;;;25.15;50.89